Аэропорт
Хабаровск (UHHH)

 UHHH / KHV
ЗЦ Хабаровск
Хабаровск (UHHH)
Хабаровск (UHHH)
 48.52800, 135.18800  / 244 ft

 UHHH 091930Z 30003MPS CAVOK 01/M10 Q1019 R23L/090060 NOSIG RMK QFE758/1011
 TAF UHHH 091346Z 0915/1021 32003MPS CAVOK FM100000 03007MPS 9999 SCT020
UHHH_j_0220
показать схемы
Название сценария Тип сценария Flight Simulator 9 Flight Simulator X Prepar3D v2 Prepar3D v3 Prepar3D v4 xPlane
uhhh-scenery-fs9-1104 бесплатный
uhhh-scenery-fs9-1406 бесплатный
uhhh-scenery-xpl-1007 бесплатный
UHHH_2017_X_P3D4 бесплатный
UHHH_P3D_v.4.4 бесплатный


2020 © VATRUS division (Privacy Policy)